LFRU/MXN METAR and TAF weather

Enter ICAO airport designator
Station Type Date Time Source
LFRU METAR 2021/09/16 20:00 UTC NOAA

LFRU 162000Z AUTO 00000KT 9999 BKN035 BKN041 OVC048 15/13 Q1019


Station Type Date Time Source
LFRU Decoded METAR 2021/09/16 20:00 UTC NOAA

Morlaix / Ploujean, France (LFRU) 48-36N 003-49W
Sep 16, 2021 - 04:00 PM EDT / 2021.09.16 2000 UTC
Wind: Calm:0
Visibility: greater than 7 mile(s):0
Sky conditions: overcast
Temperature: 59 F (15 C)
Dew Point: 55 F (13 C)
Relative Humidity: 87%
Pressure (altimeter): 30.09 in. Hg (1019 hPa)
ob: LFRU 162000Z AUTO 00000KT 9999 BKN035 BKN041 OVC048 15/13 Q1019
cycle: 20

Station Type Date Time Source
LFRU TAF UTC NOAA

Error!

Example: see airport list